sensor_id;sensor_type;location;lat;lon;timestamp;P1;durP1;ratioP1;P2;durP2;ratioP2
16193;SDS011;8204;53.582;10.080;2022-12-07T00:00:07;16.23;;;14.60;;
16193;SDS011;8204;53.582;10.080;2022-12-07T00:02:37;15.30;;;13.80;;
16193;SDS011;8204;53.582;10.080;2022-12-07T00:05:06;16.80;;;14.40;;
16193;SDS011;8204;53.582;10.080;2022-12-07T00:07:36;14.07;;;12.63;;
16193;SDS011;8204;53.582;10.080;2022-12-07T00:10:06;15.93;;;14.33;;
16193;SDS011;8204;53.582;10.080;2022-12-07T00:12:35;15.93;;;14.40;;
16193;SDS011;8204;53.582;10.080;2022-12-07T00:15:07;17.33;;;15.60;;
16193;SDS011;8204;53.582;10.080;2022-12-07T00:17:36;16.80;;;15.30;;
16193;SDS011;8204;53.582;10.080;2022-12-07T00:20:05;18.23;;;16.50;;
16193;SDS011;8204;53.582;10.080;2022-12-07T00:22:35;17.43;;;15.73;;
16193;SDS011;8204;53.582;10.080;2022-12-07T00:25:04;16.07;;;14.57;;
16193;SDS011;8204;53.582;10.080;2022-12-07T00:27:33;16.97;;;15.07;;
16193;SDS011;8204;53.582;10.080;2022-12-07T00:30:02;20.23;;;16.03;;
16193;SDS011;8204;53.582;10.080;2022-12-07T00:32:34;16.17;;;14.67;;
16193;SDS011;8204;53.582;10.080;2022-12-07T00:35:04;15.40;;;13.97;;
16193;SDS011;8204;53.582;10.080;2022-12-07T00:37:33;17.93;;;14.80;;
16193;SDS011;8204;53.582;10.080;2022-12-07T00:40:02;17.43;;;15.80;;
16193;SDS011;8204;53.582;10.080;2022-12-07T00:42:31;15.80;;;14.23;;
16193;SDS011;8204;53.582;10.080;2022-12-07T00:45:00;15.27;;;13.60;;
16193;SDS011;8204;53.582;10.080;2022-12-07T00:47:29;16.67;;;13.70;;
16193;SDS011;8204;53.582;10.080;2022-12-07T00:50:01;19.83;;;17.07;;
16193;SDS011;8204;53.582;10.080;2022-12-07T00:52:30;16.93;;;15.23;;
16193;SDS011;8204;53.582;10.080;2022-12-07T00:54:59;15.47;;;13.87;;
16193;SDS011;8204;53.582;10.080;2022-12-07T00:57:28;16.23;;;14.70;;
16193;SDS011;8204;53.582;10.080;2022-12-07T00:59:59;14.17;;;12.53;;
16193;SDS011;8204;53.582;10.080;2022-12-07T01:02:28;12.47;;;11.37;;
16193;SDS011;8204;53.582;10.080;2022-12-07T01:04:57;14.77;;;13.20;;
16193;SDS011;8204;53.582;10.080;2022-12-07T01:07:28;12.70;;;11.20;;
16193;SDS011;8204;53.582;10.080;2022-12-07T01:09:58;14.77;;;12.47;;
16193;SDS011;8204;53.582;10.080;2022-12-07T01:12:27;13.77;;;12.50;;
16193;SDS011;8204;53.582;10.080;2022-12-07T01:14:58;14.13;;;12.83;;
16193;SDS011;8204;53.582;10.080;2022-12-07T01:17:27;13.80;;;12.10;;
16193;SDS011;8204;53.582;10.080;2022-12-07T01:19:57;17.13;;;14.30;;
16193;SDS011;8204;53.582;10.080;2022-12-07T01:22:25;13.80;;;12.50;;
16193;SDS011;8204;53.582;10.080;2022-12-07T01:24:57;13.30;;;12.10;;
16193;SDS011;8204;53.582;10.080;2022-12-07T01:27:26;15.50;;;12.50;;
16193;SDS011;8204;53.582;10.080;2022-12-07T01:29:55;13.93;;;12.50;;
16193;SDS011;8204;53.582;10.080;2022-12-07T01:32:23;13.57;;;12.20;;
16193;SDS011;8204;53.582;10.080;2022-12-07T01:34:52;14.00;;;12.57;;
16193;SDS011;8204;53.582;10.080;2022-12-07T01:37:21;13.73;;;12.40;;
16193;SDS011;8204;53.582;10.080;2022-12-07T01:39:53;13.67;;;12.13;;
16193;SDS011;8204;53.582;10.080;2022-12-07T01:42:22;12.37;;;11.07;;
16193;SDS011;8204;53.582;10.080;2022-12-07T01:47:51;13.03;;;11.37;;
16193;SDS011;8204;53.582;10.080;2022-12-07T01:50:25;13.47;;;11.60;;
16193;SDS011;8204;53.582;10.080;2022-12-07T01:52:57;13.63;;;12.23;;
16193;SDS011;8204;53.582;10.080;2022-12-07T01:55:32;14.83;;;13.43;;
16193;SDS011;8204;53.582;10.080;2022-12-07T01:58:05;13.17;;;11.77;;
16193;SDS011;8204;53.582;10.080;2022-12-07T02:00:35;14.63;;;12.83;;
16193;SDS011;8204;53.582;10.080;2022-12-07T02:03:04;12.60;;;11.40;;
16193;SDS011;8204;53.582;10.080;2022-12-07T02:05:37;14.20;;;12.70;;
16193;SDS011;8204;53.582;10.080;2022-12-07T02:08:08;14.83;;;13.27;;
16193;SDS011;8204;53.582;10.080;2022-12-07T02:10:41;14.03;;;12.53;;
16193;SDS011;8204;53.582;10.080;2022-12-07T02:13:11;11.37;;;10.10;;
16193;SDS011;8204;53.582;10.080;2022-12-07T02:15:53;16.37;;;13.23;;
16193;SDS011;8204;53.582;10.080;2022-12-07T02:18:36;11.33;;;9.93;;
16193;SDS011;8204;53.582;10.080;2022-12-07T02:21:16;12.90;;;9.57;;
16193;SDS011;8204;53.582;10.080;2022-12-07T02:23:59;12.17;;;10.13;;
16193;SDS011;8204;53.582;10.080;2022-12-07T02:26:51;12.47;;;10.90;;
16193;SDS011;8204;53.582;10.080;2022-12-07T02:29:38;14.37;;;9.80;;
16193;SDS011;8204;53.582;10.080;2022-12-07T02:32:15;9.57;;;8.60;;
16193;SDS011;8204;53.582;10.080;2022-12-07T02:34:49;8.77;;;7.10;;
16193;SDS011;8204;53.582;10.080;2022-12-07T02:37:29;8.87;;;7.83;;
16193;SDS011;8204;53.582;10.080;2022-12-07T02:40:07;10.67;;;7.43;;
16193;SDS011;8204;53.582;10.080;2022-12-07T02:42:44;10.13;;;7.23;;
16193;SDS011;8204;53.582;10.080;2022-12-07T02:45:18;12.23;;;7.80;;
16193;SDS011;8204;53.582;10.080;2022-12-07T02:47:51;9.37;;;6.90;;
16193;SDS011;8204;53.582;10.080;2022-12-07T02:50:24;9.90;;;6.90;;
16193;SDS011;8204;53.582;10.080;2022-12-07T02:52:54;6.20;;;4.83;;
16193;SDS011;8204;53.582;10.080;2022-12-07T02:55:26;5.93;;;5.30;;
16193;SDS011;8204;53.582;10.080;2022-12-07T02:58:05;5.40;;;4.93;;
16193;SDS011;8204;53.582;10.080;2022-12-07T03:00:50;6.67;;;5.63;;
16193;SDS011;8204;53.582;10.080;2022-12-07T03:03:23;5.97;;;5.37;;
16193;SDS011;8204;53.582;10.080;2022-12-07T03:05:54;8.87;;;4.50;;
16193;SDS011;8204;53.582;10.080;2022-12-07T03:08:35;5.40;;;4.90;;
16193;SDS011;8204;53.582;10.080;2022-12-07T03:11:12;5.00;;;4.10;;
16193;SDS011;8204;53.582;10.080;2022-12-07T03:13:45;5.10;;;4.20;;
16193;SDS011;8204;53.582;10.080;2022-12-07T03:16:21;7.67;;;3.53;;
16193;SDS011;8204;53.582;10.080;2022-12-07T03:18:54;5.10;;;4.13;;
16193;SDS011;8204;53.582;10.080;2022-12-07T03:21:27;6.30;;;2.70;;
16193;SDS011;8204;53.582;10.080;2022-12-07T03:24:03;6.03;;;3.57;;
16193;SDS011;8204;53.582;10.080;2022-12-07T03:26:38;4.00;;;3.50;;
16193;SDS011;8204;53.582;10.080;2022-12-07T03:29:10;3.60;;;3.27;;
16193;SDS011;8204;53.582;10.080;2022-12-07T03:31:46;5.57;;;2.83;;
16193;SDS011;8204;53.582;10.080;2022-12-07T03:34:18;5.60;;;3.80;;
16193;SDS011;8204;53.582;10.080;2022-12-07T03:36:53;2.33;;;2.13;;
16193;SDS011;8204;53.582;10.080;2022-12-07T03:39:28;5.97;;;2.63;;
16193;SDS011;8204;53.582;10.080;2022-12-07T03:42:03;4.87;;;2.53;;
16193;SDS011;8204;53.582;10.080;2022-12-07T03:44:35;3.20;;;2.30;;
16193;SDS011;8204;53.582;10.080;2022-12-07T03:47:09;2.67;;;2.47;;
16193;SDS011;8204;53.582;10.080;2022-12-07T03:49:43;2.43;;;2.03;;
16193;SDS011;8204;53.582;10.080;2022-12-07T03:52:18;3.10;;;2.40;;
16193;SDS011;8204;53.582;10.080;2022-12-07T03:54:53;3.20;;;2.33;;
16193;SDS011;8204;53.582;10.080;2022-12-07T03:57:27;3.43;;;2.33;;
16193;SDS011;8204;53.582;10.080;2022-12-07T03:59:59;5.87;;;2.53;;
16193;SDS011;8204;53.582;10.080;2022-12-07T04:02:31;3.17;;;2.70;;
16193;SDS011;8204;53.582;10.080;2022-12-07T04:05:01;4.33;;;2.47;;
16193;SDS011;8204;53.582;10.080;2022-12-07T04:07:30;4.33;;;1.80;;
16193;SDS011;8204;53.582;10.080;2022-12-07T04:09:59;1.50;;;1.40;;
16193;SDS011;8204;53.582;10.080;2022-12-07T04:12:28;2.47;;;2.13;;
16193;SDS011;8204;53.582;10.080;2022-12-07T04:14:57;4.23;;;2.37;;
16193;SDS011;8204;53.582;10.080;2022-12-07T04:17:26;3.63;;;2.27;;
16193;SDS011;8204;53.582;10.080;2022-12-07T04:19:58;2.93;;;2.63;;
16193;SDS011;8204;53.582;10.080;2022-12-07T04:22:27;2.93;;;2.43;;
16193;SDS011;8204;53.582;10.080;2022-12-07T04:24:55;2.03;;;1.73;;
16193;SDS011;8204;53.582;10.080;2022-12-07T04:27:25;2.93;;;2.07;;
16193;SDS011;8204;53.582;10.080;2022-12-07T04:29:53;3.47;;;2.77;;
16193;SDS011;8204;53.582;10.080;2022-12-07T04:32:23;2.33;;;2.13;;
16193;SDS011;8204;53.582;10.080;2022-12-07T04:34:52;4.43;;;2.00;;
16193;SDS011;8204;53.582;10.080;2022-12-07T04:37:23;3.80;;;2.03;;
16193;SDS011;8204;53.582;10.080;2022-12-07T04:39:52;3.43;;;2.27;;
16193;SDS011;8204;53.582;10.080;2022-12-07T04:42:21;2.33;;;2.13;;
16193;SDS011;8204;53.582;10.080;2022-12-07T04:44:50;3.47;;;2.60;;
16193;SDS011;8204;53.582;10.080;2022-12-07T04:47:19;3.97;;;2.13;;
16193;SDS011;8204;53.582;10.080;2022-12-07T04:49:48;3.03;;;2.67;;
16193;SDS011;8204;53.582;10.080;2022-12-07T04:52:17;5.87;;;2.70;;
16193;SDS011;8204;53.582;10.080;2022-12-07T04:54:48;3.27;;;2.63;;
16193;SDS011;8204;53.582;10.080;2022-12-07T04:57:17;5.07;;;2.93;;
16193;SDS011;8204;53.582;10.080;2022-12-07T04:59:46;4.37;;;2.77;;
16193;SDS011;8204;53.582;10.080;2022-12-07T05:02:15;4.43;;;3.70;;
16193;SDS011;8204;53.582;10.080;2022-12-07T05:04:43;5.97;;;3.10;;
16193;SDS011;8204;53.582;10.080;2022-12-07T05:07:12;3.37;;;3.07;;
16193;SDS011;8204;53.582;10.080;2022-12-07T05:09:41;3.83;;;2.50;;
16193;SDS011;8204;53.582;10.080;2022-12-07T05:12:13;4.00;;;2.67;;
16193;SDS011;8204;53.582;10.080;2022-12-07T05:14:42;4.23;;;3.30;;
16193;SDS011;8204;53.582;10.080;2022-12-07T05:17:11;2.77;;;2.57;;
16193;SDS011;8204;53.582;10.080;2022-12-07T05:19:40;3.50;;;3.20;;
16193;SDS011;8204;53.582;10.080;2022-12-07T05:22:09;6.63;;;3.30;;
16193;SDS011;8204;53.582;10.080;2022-12-07T05:24:39;5.90;;;4.20;;
16193;SDS011;8204;53.582;10.080;2022-12-07T05:27:08;3.77;;;3.33;;
16193;SDS011;8204;53.582;10.080;2022-12-07T05:29:40;4.60;;;3.40;;
16193;SDS011;8204;53.582;10.080;2022-12-07T05:32:08;3.33;;;3.03;;
16193;SDS011;8204;53.582;10.080;2022-12-07T05:34:38;3.63;;;3.20;;
16193;SDS011;8204;53.582;10.080;2022-12-07T05:37:07;3.00;;;2.50;;
16193;SDS011;8204;53.582;10.080;2022-12-07T05:39:36;2.93;;;2.70;;
16193;SDS011;8204;53.582;10.080;2022-12-07T05:42:08;5.27;;;3.10;;
16193;SDS011;8204;53.582;10.080;2022-12-07T05:44:45;3.97;;;2.63;;
16193;SDS011;8204;53.582;10.080;2022-12-07T05:47:15;3.93;;;3.60;;
16193;SDS011;8204;53.582;10.080;2022-12-07T05:49:44;5.90;;;3.10;;
16193;SDS011;8204;53.582;10.080;2022-12-07T05:52:13;3.53;;;3.03;;
16193;SDS011;8204;53.582;10.080;2022-12-07T05:54:42;4.40;;;3.23;;
16193;SDS011;8204;53.582;10.080;2022-12-07T05:57:11;5.70;;;3.60;;
16193;SDS011;8204;53.582;10.080;2022-12-07T05:59:40;4.23;;;3.87;;
16193;SDS011;8204;53.582;10.080;2022-12-07T06:02:10;4.17;;;3.77;;
16193;SDS011;8204;53.582;10.080;2022-12-07T06:04:40;11.67;;;4.43;;
16193;SDS011;8204;53.582;10.080;2022-12-07T06:07:11;5.07;;;3.73;;
16193;SDS011;8204;53.582;10.080;2022-12-07T06:09:41;6.17;;;3.90;;
16193;SDS011;8204;53.582;10.080;2022-12-07T06:12:10;3.70;;;3.40;;
16193;SDS011;8204;53.582;10.080;2022-12-07T06:14:51;4.63;;;3.60;;
16193;SDS011;8204;53.582;10.080;2022-12-07T06:17:23;4.03;;;3.63;;
16193;SDS011;8204;53.582;10.080;2022-12-07T06:19:52;5.63;;;4.80;;
16193;SDS011;8204;53.582;10.080;2022-12-07T06:22:20;4.17;;;3.87;;
16193;SDS011;8204;53.582;10.080;2022-12-07T06:24:49;4.30;;;3.67;;
16193;SDS011;8204;53.582;10.080;2022-12-07T06:27:18;6.10;;;3.87;;
16193;SDS011;8204;53.582;10.080;2022-12-07T06:29:47;4.50;;;3.47;;
16193;SDS011;8204;53.582;10.080;2022-12-07T06:32:16;7.60;;;3.93;;
16193;SDS011;8204;53.582;10.080;2022-12-07T06:34:47;5.20;;;3.83;;
16193;SDS011;8204;53.582;10.080;2022-12-07T06:37:16;4.93;;;3.97;;
16193;SDS011;8204;53.582;10.080;2022-12-07T06:39:45;7.13;;;3.53;;
16193;SDS011;8204;53.582;10.080;2022-12-07T06:42:13;4.50;;;3.00;;
16193;SDS011;8204;53.582;10.080;2022-12-07T06:44:42;4.37;;;3.67;;
16193;SDS011;8204;53.582;10.080;2022-12-07T06:47:11;6.30;;;4.47;;
16193;SDS011;8204;53.582;10.080;2022-12-07T06:49:40;7.13;;;4.27;;
16193;SDS011;8204;53.582;10.080;2022-12-07T06:52:12;4.57;;;3.27;;
16193;SDS011;8204;53.582;10.080;2022-12-07T06:54:41;4.30;;;2.77;;
16193;SDS011;8204;53.582;10.080;2022-12-07T06:57:10;3.70;;;3.40;;
16193;SDS011;8204;53.582;10.080;2022-12-07T06:59:39;3.57;;;3.03;;
16193;SDS011;8204;53.582;10.080;2022-12-07T07:02:08;3.93;;;2.40;;
16193;SDS011;8204;53.582;10.080;2022-12-07T07:04:38;4.53;;;3.20;;
16193;SDS011;8204;53.582;10.080;2022-12-07T07:07:07;4.60;;;4.20;;
16193;SDS011;8204;53.582;10.080;2022-12-07T07:09:39;4.67;;;3.20;;
16193;SDS011;8204;53.582;10.080;2022-12-07T07:12:08;10.37;;;3.87;;
16193;SDS011;8204;53.582;10.080;2022-12-07T07:14:37;3.77;;;3.20;;
16193;SDS011;8204;53.582;10.080;2022-12-07T07:17:05;7.97;;;4.30;;
16193;SDS011;8204;53.582;10.080;2022-12-07T07:19:35;4.03;;;3.20;;
16193;SDS011;8204;53.582;10.080;2022-12-07T07:22:04;6.17;;;3.37;;
16193;SDS011;8204;53.582;10.080;2022-12-07T07:24:33;3.27;;;2.60;;
16193;SDS011;8204;53.582;10.080;2022-12-07T07:27:04;4.40;;;2.20;;
16193;SDS011;8204;53.582;10.080;2022-12-07T07:29:33;3.53;;;3.00;;
16193;SDS011;8204;53.582;10.080;2022-12-07T07:32:02;5.37;;;2.27;;
16193;SDS011;8204;53.582;10.080;2022-12-07T07:34:31;7.83;;;3.03;;
16193;SDS011;8204;53.582;10.080;2022-12-07T07:37:00;7.13;;;2.97;;
16193;SDS011;8204;53.582;10.080;2022-12-07T07:39:29;6.40;;;2.80;;
16193;SDS011;8204;53.582;10.080;2022-12-07T07:41:59;3.10;;;2.33;;
16193;SDS011;8204;53.582;10.080;2022-12-07T07:44:30;5.03;;;2.33;;
16193;SDS011;8204;53.582;10.080;2022-12-07T07:46:59;5.23;;;2.63;;
16193;SDS011;8204;53.582;10.080;2022-12-07T07:49:27;3.97;;;2.90;;
16193;SDS011;8204;53.582;10.080;2022-12-07T07:51:56;6.87;;;5.27;;
16193;SDS011;8204;53.582;10.080;2022-12-07T07:54:25;4.77;;;2.17;;
16193;SDS011;8204;53.582;10.080;2022-12-07T07:56:54;6.13;;;2.23;;
16193;SDS011;8204;53.582;10.080;2022-12-07T07:59:23;3.50;;;2.53;;
16193;SDS011;8204;53.582;10.080;2022-12-07T08:01:54;6.53;;;2.10;;
16193;SDS011;8204;53.582;10.080;2022-12-07T08:04:23;7.07;;;2.50;;
16193;SDS011;8204;53.582;10.080;2022-12-07T08:06:52;7.73;;;3.23;;
16193;SDS011;8204;53.582;10.080;2022-12-07T08:09:21;4.23;;;2.37;;
16193;SDS011;8204;53.582;10.080;2022-12-07T08:11:50;3.43;;;1.87;;
16193;SDS011;8204;53.582;10.080;2022-12-07T08:14:18;3.17;;;2.00;;
16193;SDS011;8204;53.582;10.080;2022-12-07T08:16:47;4.10;;;1.87;;
16193;SDS011;8204;53.582;10.080;2022-12-07T08:19:19;4.10;;;2.20;;
16193;SDS011;8204;53.582;10.080;2022-12-07T08:21:47;7.00;;;1.80;;
16193;SDS011;8204;53.582;10.080;2022-12-07T08:24:16;4.40;;;3.67;;
16193;SDS011;8204;53.582;10.080;2022-12-07T08:26:45;3.10;;;2.60;;
16193;SDS011;8204;53.582;10.080;2022-12-07T08:29:15;5.50;;;2.67;;
16193;SDS011;8204;53.582;10.080;2022-12-07T08:31:44;3.60;;;1.97;;
16193;SDS011;8204;53.582;10.080;2022-12-07T08:34:13;2.83;;;1.53;;
16193;SDS011;8204;53.582;10.080;2022-12-07T08:36:45;3.97;;;2.73;;
16193;SDS011;8204;53.582;10.080;2022-12-07T08:39:14;3.27;;;2.43;;
16193;SDS011;8204;53.582;10.080;2022-12-07T08:41:43;2.97;;;2.00;;
16193;SDS011;8204;53.582;10.080;2022-12-07T08:44:12;3.67;;;2.40;;
16193;SDS011;8204;53.582;10.080;2022-12-07T08:46:41;4.13;;;1.97;;
16193;SDS011;8204;53.582;10.080;2022-12-07T08:49:15;5.43;;;2.33;;
16193;SDS011;8204;53.582;10.080;2022-12-07T08:51:50;13.20;;;2.63;;
16193;SDS011;8204;53.582;10.080;2022-12-07T08:54:19;7.03;;;2.80;;
16193;SDS011;8204;53.582;10.080;2022-12-07T08:56:49;5.57;;;2.93;;
16193;SDS011;8204;53.582;10.080;2022-12-07T08:59:19;4.03;;;2.03;;
16193;SDS011;8204;53.582;10.080;2022-12-07T09:01:48;8.97;;;2.37;;
16193;SDS011;8204;53.582;10.080;2022-12-07T09:04:17;3.27;;;1.90;;
16193;SDS011;8204;53.582;10.080;2022-12-07T09:06:46;3.33;;;2.10;;
16193;SDS011;8204;53.582;10.080;2022-12-07T09:09:18;6.90;;;2.60;;
16193;SDS011;8204;53.582;10.080;2022-12-07T09:11:47;7.80;;;4.10;;
16193;SDS011;8204;53.582;10.080;2022-12-07T09:14:16;7.73;;;2.30;;
16193;SDS011;8204;53.582;10.080;2022-12-07T09:16:45;3.33;;;1.77;;
16193;SDS011;8204;53.582;10.080;2022-12-07T09:19:14;3.37;;;2.20;;
16193;SDS011;8204;53.582;10.080;2022-12-07T09:21:43;8.03;;;2.97;;
16193;SDS011;8204;53.582;10.080;2022-12-07T09:24:12;6.63;;;2.30;;
16193;SDS011;8204;53.582;10.080;2022-12-07T09:26:44;4.00;;;2.80;;
16193;SDS011;8204;53.582;10.080;2022-12-07T09:29:13;7.60;;;3.33;;
16193;SDS011;8204;53.582;10.080;2022-12-07T09:31:41;4.30;;;2.17;;
16193;SDS011;8204;53.582;10.080;2022-12-07T09:34:11;4.87;;;2.27;;
16193;SDS011;8204;53.582;10.080;2022-12-07T09:36:39;6.50;;;2.57;;
16193;SDS011;8204;53.582;10.080;2022-12-07T09:39:08;4.30;;;2.27;;
16193;SDS011;8204;53.582;10.080;2022-12-07T09:41:37;9.53;;;3.70;;
16193;SDS011;8204;53.582;10.080;2022-12-07T09:44:12;8.43;;;2.40;;
16193;SDS011;8204;53.582;10.080;2022-12-07T09:46:43;6.17;;;3.00;;
16193;SDS011;8204;53.582;10.080;2022-12-07T09:49:15;4.77;;;2.03;;
16193;SDS011;8204;53.582;10.080;2022-12-07T09:51:46;6.53;;;2.60;;
16193;SDS011;8204;53.582;10.080;2022-12-07T09:54:16;2.87;;;2.17;;
16193;SDS011;8204;53.582;10.080;2022-12-07T09:56:45;2.77;;;2.00;;
16193;SDS011;8204;53.582;10.080;2022-12-07T09:59:17;4.63;;;2.27;;
16193;SDS011;8204;53.582;10.080;2022-12-07T10:01:48;5.50;;;2.33;;
16193;SDS011;8204;53.582;10.080;2022-12-07T10:04:19;4.50;;;2.60;;
16193;SDS011;8204;53.582;10.080;2022-12-07T10:06:49;10.53;;;2.33;;
16193;SDS011;8204;53.582;10.080;2022-12-07T10:09:20;5.90;;;2.43;;
16193;SDS011;8204;53.582;10.080;2022-12-07T10:11:57;3.40;;;2.33;;
16193;SDS011;8204;53.582;10.080;2022-12-07T10:14:33;4.30;;;2.60;;
16193;SDS011;8204;53.582;10.080;2022-12-07T10:17:12;4.80;;;1.93;;
16193;SDS011;8204;53.582;10.080;2022-12-07T10:20:13;4.63;;;2.43;;
16193;SDS011;8204;53.582;10.080;2022-12-07T10:22:58;5.17;;;1.70;;
16193;SDS011;8204;53.582;10.080;2022-12-07T10:25:31;4.77;;;1.80;;
16193;SDS011;8204;53.582;10.080;2022-12-07T10:28:02;6.07;;;2.97;;
16193;SDS011;8204;53.582;10.080;2022-12-07T10:30:52;10.03;;;2.30;;
16193;SDS011;8204;53.582;10.080;2022-12-07T10:33:29;5.70;;;2.97;;
16193;SDS011;8204;53.582;10.080;2022-12-07T10:36:00;7.23;;;2.00;;
16193;SDS011;8204;53.582;10.080;2022-12-07T10:38:44;6.30;;;2.67;;
16193;SDS011;8204;53.582;10.080;2022-12-07T10:41:15;5.47;;;2.80;;
16193;SDS011;8204;53.582;10.080;2022-12-07T10:43:47;4.03;;;2.90;;
16193;SDS011;8204;53.582;10.080;2022-12-07T10:46:34;2.87;;;2.07;;
16193;SDS011;8204;53.582;10.080;2022-12-07T10:49:27;6.03;;;2.67;;
16193;SDS011;8204;53.582;10.080;2022-12-07T10:52:12;4.80;;;2.00;;
16193;SDS011;8204;53.582;10.080;2022-12-07T10:54:52;8.10;;;3.20;;
16193;SDS011;8204;53.582;10.080;2022-12-07T10:57:32;6.23;;;1.83;;
16193;SDS011;8204;53.582;10.080;2022-12-07T11:00:16;5.10;;;1.70;;
16193;SDS011;8204;53.582;10.080;2022-12-07T11:03:03;7.20;;;1.97;;
16193;SDS011;8204;53.582;10.080;2022-12-07T11:05:45;4.00;;;2.80;;
16193;SDS011;8204;53.582;10.080;2022-12-07T11:08:25;9.63;;;3.37;;
16193;SDS011;8204;53.582;10.080;2022-12-07T11:11:09;3.33;;;2.03;;
16193;SDS011;8204;53.582;10.080;2022-12-07T11:13:55;15.77;;;3.07;;
16193;SDS011;8204;53.582;10.080;2022-12-07T11:16:47;4.57;;;1.97;;
16193;SDS011;8204;53.582;10.080;2022-12-07T11:22:35;3.30;;;1.80;;
16193;SDS011;8204;53.582;10.080;2022-12-07T11:25:17;4.43;;;1.73;;
16193;SDS011;8204;53.582;10.080;2022-12-07T11:28:00;6.83;;;3.37;;
16193;SDS011;8204;53.582;10.080;2022-12-07T11:31:01;5.60;;;1.60;;
16193;SDS011;8204;53.582;10.080;2022-12-07T11:33:46;5.70;;;2.60;;
16193;SDS011;8204;53.582;10.080;2022-12-07T11:36:30;7.57;;;2.10;;
16193;SDS011;8204;53.582;10.080;2022-12-07T11:39:11;7.63;;;1.97;;
16193;SDS011;8204;53.582;10.080;2022-12-07T11:41:55;4.20;;;2.87;;
16193;SDS011;8204;53.582;10.080;2022-12-07T11:44:31;4.43;;;2.30;;
16193;SDS011;8204;53.582;10.080;2022-12-07T11:47:09;7.57;;;2.60;;
16193;SDS011;8204;53.582;10.080;2022-12-07T11:49:46;10.23;;;2.63;;
16193;SDS011;8204;53.582;10.080;2022-12-07T11:52:25;3.60;;;2.73;;
16193;SDS011;8204;53.582;10.080;2022-12-07T11:55:01;5.03;;;1.60;;
16193;SDS011;8204;53.582;10.080;2022-12-07T11:57:35;3.23;;;2.47;;
16193;SDS011;8204;53.582;10.080;2022-12-07T12:00:12;9.87;;;2.97;;
16193;SDS011;8204;53.582;10.080;2022-12-07T12:02:46;9.07;;;2.70;;
16193;SDS011;8204;53.582;10.080;2022-12-07T12:05:21;4.17;;;2.50;;
16193;SDS011;8204;53.582;10.080;2022-12-07T12:08:02;6.37;;;1.83;;
16193;SDS011;8204;53.582;10.080;2022-12-07T12:10:42;7.30;;;2.53;;
16193;SDS011;8204;53.582;10.080;2022-12-07T12:13:23;4.33;;;1.67;;
16193;SDS011;8204;53.582;10.080;2022-12-07T12:16:22;5.90;;;1.63;;
16193;SDS011;8204;53.582;10.080;2022-12-07T12:19:11;3.53;;;1.50;;
16193;SDS011;8204;53.582;10.080;2022-12-07T12:21:49;6.63;;;2.37;;
16193;SDS011;8204;53.582;10.080;2022-12-07T12:24:28;6.50;;;1.97;;
16193;SDS011;8204;53.582;10.080;2022-12-07T12:27:03;4.50;;;2.43;;
16193;SDS011;8204;53.582;10.080;2022-12-07T12:29:36;8.77;;;2.63;;
16193;SDS011;8204;53.582;10.080;2022-12-07T12:32:16;3.17;;;2.03;;
16193;SDS011;8204;53.582;10.080;2022-12-07T12:34:59;5.87;;;2.43;;
16193;SDS011;8204;53.582;10.080;2022-12-07T12:37:39;4.43;;;1.97;;
16193;SDS011;8204;53.582;10.080;2022-12-07T12:52:48;5.43;;;2.37;;
16193;SDS011;8204;53.582;10.080;2022-12-07T12:55:28;9.70;;;3.57;;
16193;SDS011;8204;53.582;10.080;2022-12-07T12:58:28;4.03;;;2.50;;
